createdAt,value
2018-02-10T00:00:27.977Z,0.30
2018-02-10T00:02:56.542Z,0.20
2018-02-10T00:05:24.138Z,0.30
2018-02-10T00:07:51.680Z,0.30
2018-02-10T00:10:19.297Z,0.30
2018-02-10T00:12:46.816Z,0.30
2018-02-10T00:15:14.363Z,0.30
2018-02-10T00:17:41.968Z,0.30
2018-02-10T00:20:09.546Z,0.30
2018-02-10T00:22:37.045Z,0.30
2018-02-10T00:25:04.613Z,0.40
2018-02-10T00:27:33.751Z,0.30
2018-02-10T00:30:01.353Z,0.40
2018-02-10T00:32:28.930Z,0.40
2018-02-10T00:34:56.448Z,0.40
2018-02-10T00:37:24.169Z,0.40
2018-02-10T00:39:51.696Z,0.40
2018-02-10T00:42:19.240Z,0.30
2018-02-10T00:44:46.754Z,0.30
2018-02-10T00:47:14.459Z,0.30
2018-02-10T00:49:42.023Z,0.30
2018-02-10T00:52:09.620Z,0.30
2018-02-10T00:54:37.174Z,0.40
2018-02-10T00:57:04.751Z,0.40
2018-02-10T00:59:32.311Z,0.40
2018-02-10T01:01:59.909Z,0.40
2018-02-10T01:04:27.478Z,0.40
2018-02-10T01:06:55.028Z,0.50
2018-02-10T01:09:22.569Z,0.50
2018-02-10T01:11:50.155Z,0.50
2018-02-10T01:14:18.459Z,0.60
2018-02-10T01:16:46.007Z,0.60
2018-02-10T01:19:14.309Z,0.60
2018-02-10T01:21:41.851Z,0.50
2018-02-10T01:24:09.427Z,0.60
2018-02-10T01:26:37.038Z,0.70
2018-02-10T01:29:04.765Z,0.60
2018-02-10T01:31:32.403Z,0.60
2018-02-10T01:34:00.034Z,0.60
2018-02-10T01:36:27.662Z,0.60
2018-02-10T01:38:55.214Z,0.60
2018-02-10T01:41:22.871Z,0.60
2018-02-10T01:43:51.216Z,0.70
2018-02-10T01:46:18.752Z,0.60
2018-02-10T01:48:46.384Z,0.70
2018-02-10T01:51:13.904Z,0.70
2018-02-10T01:53:41.456Z,0.60
2018-02-10T01:56:09.183Z,0.70
2018-02-10T01:58:36.779Z,0.70
2018-02-10T02:01:04.396Z,0.60
2018-02-10T02:03:31.967Z,0.60
2018-02-10T02:05:59.491Z,0.70
2018-02-10T02:08:27.016Z,0.70
2018-02-10T02:10:54.578Z,0.70
2018-02-10T02:13:22.145Z,0.70
2018-02-10T02:15:49.671Z,0.70
2018-02-10T02:18:17.194Z,0.70
2018-02-10T02:20:44.715Z,0.70
2018-02-10T02:23:12.242Z,0.70
2018-02-10T02:25:39.828Z,0.70
2018-02-10T02:28:07.477Z,0.70
2018-02-10T02:30:35.019Z,0.70
2018-02-10T02:33:02.607Z,0.70
2018-02-10T02:35:30.161Z,0.80
2018-02-10T02:37:58.515Z,0.70
2018-02-10T02:40:26.059Z,0.70
2018-02-10T02:42:53.599Z,0.70
2018-02-10T02:45:21.941Z,0.70
2018-02-10T02:47:49.582Z,0.70
2018-02-10T02:50:17.937Z,0.60
2018-02-10T02:52:45.507Z,0.60
2018-02-10T02:55:13.206Z,0.60
2018-02-10T02:57:41.525Z,0.70
2018-02-10T03:00:09.031Z,0.70
2018-02-10T03:02:36.587Z,0.70
2018-02-10T03:05:04.110Z,0.70
2018-02-10T03:07:32.441Z,0.60
2018-02-10T03:10:00.024Z,0.60
2018-02-10T03:12:27.580Z,0.60
2018-02-10T03:14:55.097Z,0.60
2018-02-10T03:17:22.834Z,0.60
2018-02-10T03:19:50.436Z,0.60
2018-02-10T03:22:18.119Z,0.60
2018-02-10T03:24:46.543Z,0.60
2018-02-10T03:27:14.862Z,0.70
2018-02-10T03:29:42.434Z,0.60
2018-02-10T03:32:10.224Z,0.60
2018-02-10T03:34:37.788Z,0.60
2018-02-10T03:37:05.337Z,0.60
2018-02-10T03:39:32.875Z,0.60
2018-02-10T03:42:00.421Z,0.50
2018-02-10T03:44:28.072Z,0.50
2018-02-10T03:46:55.608Z,0.50
2018-02-10T03:49:23.914Z,0.50
2018-02-10T03:51:51.483Z,0.40
2018-02-10T03:54:19.801Z,0.40
2018-02-10T03:56:47.365Z,0.40
2018-02-10T03:59:14.983Z,0.50
2018-02-10T04:01:42.637Z,0.50
2018-02-10T04:04:10.234Z,0.40
2018-02-10T04:06:37.765Z,0.50
2018-02-10T04:09:05.312Z,0.40
2018-02-10T04:11:32.860Z,0.40
2018-02-10T04:14:00.400Z,0.50
2018-02-10T04:16:28.754Z,0.50
2018-02-10T04:18:56.269Z,0.50
2018-02-10T04:21:23.851Z,0.60
2018-02-10T04:23:51.395Z,0.50
2018-02-10T04:26:19.007Z,0.50
2018-02-10T04:28:46.563Z,0.50
2018-02-10T04:31:14.911Z,0.50
2018-02-10T04:33:42.423Z,0.40
2018-02-10T04:36:10.077Z,0.50
2018-02-10T04:38:37.625Z,0.50
2018-02-10T04:41:05.195Z,0.50
2018-02-10T04:43:32.818Z,0.50
2018-02-10T04:46:00.381Z,0.50
2018-02-10T04:48:27.911Z,0.50
2018-02-10T04:50:55.529Z,0.50
2018-02-10T04:53:23.122Z,0.60
2018-02-10T04:55:50.772Z,0.60
2018-02-10T04:58:18.319Z,0.60
2018-02-10T05:00:45.844Z,0.60
2018-02-10T05:03:13.522Z,0.50
2018-02-10T05:05:41.824Z,0.40
2018-02-10T05:08:10.127Z,0.50
2018-02-10T05:10:37.702Z,0.50
2018-02-10T05:13:05.270Z,0.50
2018-02-10T05:15:32.871Z,0.50
2018-02-10T05:18:00.435Z,0.60
2018-02-10T05:20:27.968Z,0.50
2018-02-10T05:22:56.272Z,0.50
2018-02-10T05:25:23.829Z,0.50
2018-02-10T05:27:52.160Z,0.60
2018-02-10T05:30:19.756Z,0.60
2018-02-10T05:32:47.309Z,0.60
2018-02-10T05:35:14.936Z,0.60
2018-02-10T05:37:43.254Z,0.60
2018-02-10T05:40:10.803Z,0.60
2018-02-10T05:42:39.178Z,0.50
2018-02-10T05:45:07.512Z,0.50
2018-02-10T05:47:35.033Z,0.50
2018-02-10T05:50:02.617Z,0.50
2018-02-10T05:52:30.996Z,0.40
2018-02-10T05:54:58.548Z,0.50
2018-02-10T05:57:26.139Z,0.50
2018-02-10T05:59:53.754Z,0.50
2018-02-10T06:02:21.275Z,0.50
2018-02-10T06:04:48.835Z,0.50
2018-02-10T06:07:16.379Z,0.50
2018-02-10T06:09:43.940Z,0.50
2018-02-10T06:12:11.512Z,0.40
2018-02-10T06:14:39.056Z,0.40
2018-02-10T06:17:07.458Z,0.40
2018-02-10T06:19:35.941Z,0.30
2018-02-10T06:22:03.512Z,0.30
2018-02-10T06:24:31.829Z,0.30
2018-02-10T06:26:59.372Z,0.30
2018-02-10T06:29:27.772Z,0.50
2018-02-10T06:31:56.064Z,0.40
2018-02-10T06:34:24.388Z,0.40
2018-02-10T06:36:51.903Z,0.40
2018-02-10T06:39:19.458Z,0.40
2018-02-10T06:41:47.056Z,0.40
2018-02-10T06:44:14.614Z,0.40
2018-02-10T06:46:42.199Z,0.30
2018-02-10T06:49:09.760Z,0.40
2018-02-10T06:51:38.108Z,0.50
2018-02-10T06:54:05.717Z,0.40
2018-02-10T06:56:33.356Z,0.50
2018-02-10T06:59:01.024Z,0.50
2018-02-10T07:01:28.565Z,0.50
2018-02-10T07:03:56.939Z,0.60
2018-02-10T07:06:24.506Z,0.50
2018-02-10T07:08:52.050Z,0.60
2018-02-10T07:11:19.684Z,0.60
2018-02-10T07:13:47.354Z,0.60
2018-02-10T07:16:15.647Z,0.60
2018-02-10T07:18:43.240Z,0.60
2018-02-10T07:21:10.799Z,0.70
2018-02-10T07:23:38.384Z,0.70
2018-02-10T07:26:05.926Z,0.90
2018-02-10T07:28:33.476Z,0.80
2018-02-10T07:31:01.059Z,0.80
2018-02-10T07:33:28.751Z,0.80
2018-02-10T07:35:57.127Z,0.70
2018-02-10T07:38:25.420Z,0.80
2018-02-10T07:40:53.729Z,0.70
2018-02-10T07:43:22.012Z,0.90
2018-02-10T07:45:50.325Z,0.90
2018-02-10T07:48:17.950Z,0.90
2018-02-10T07:50:45.548Z,0.90
2018-02-10T07:53:13.855Z,0.90
2018-02-10T07:55:41.397Z,1.00
2018-02-10T07:58:09.927Z,1.10
2018-02-10T08:00:37.567Z,1.00
2018-02-10T08:03:05.127Z,1.20
2018-02-10T08:05:33.431Z,1.30
2018-02-10T08:08:01.784Z,1.30
2018-02-10T08:10:30.041Z,1.30
2018-02-10T08:12:57.597Z,1.40
2018-02-10T08:15:25.136Z,1.30
2018-02-10T08:17:52.664Z,1.40
2018-02-10T08:20:20.212Z,1.40
2018-02-10T08:22:48.597Z,1.50
2018-02-10T08:25:16.910Z,1.50
2018-02-10T08:27:44.528Z,1.50
2018-02-10T08:30:12.075Z,1.60
2018-02-10T08:32:39.620Z,1.60
2018-02-10T08:35:07.164Z,1.70
2018-02-10T08:37:34.735Z,1.70
2018-02-10T08:40:03.060Z,1.80
2018-02-10T08:42:30.601Z,1.80
2018-02-10T08:44:58.953Z,1.90
2018-02-10T08:47:26.506Z,1.80
2018-02-10T08:49:54.049Z,1.90
2018-02-10T08:52:22.350Z,2.00
2018-02-10T08:54:49.971Z,2.00
2018-02-10T08:57:17.567Z,2.10
2018-02-10T08:59:45.893Z,2.30
2018-02-10T09:02:13.435Z,2.30
2018-02-10T09:04:41.723Z,2.40
2018-02-10T09:07:10.007Z,2.50
2018-02-10T09:09:37.608Z,2.50
2018-02-10T09:12:05.174Z,2.50
2018-02-10T09:14:32.933Z,2.60
2018-02-10T09:17:00.551Z,2.70
2018-02-10T09:19:28.108Z,2.80
2018-02-10T09:21:55.663Z,2.90
2018-02-10T09:24:24.040Z,3.40
2018-02-10T09:26:52.436Z,3.50
2018-02-10T09:29:20.725Z,3.70
2018-02-10T09:31:49.042Z,3.90
2018-02-10T09:34:16.555Z,3.80
2018-02-10T09:36:44.095Z,4.00
2018-02-10T09:39:11.663Z,4.00
2018-02-10T09:41:39.198Z,4.10
2018-02-10T09:44:07.509Z,4.40
2018-02-10T09:46:35.172Z,4.40
2018-02-10T09:49:02.698Z,4.40
2018-02-10T09:51:30.247Z,4.50
2018-02-10T09:53:57.796Z,4.60
2018-02-10T09:56:25.324Z,4.50
2018-02-10T09:58:52.859Z,4.50
2018-02-10T10:01:20.391Z,4.80
2018-02-10T10:03:48.721Z,4.80
2018-02-10T10:06:16.302Z,4.80
2018-02-10T10:08:43.857Z,4.90
2018-02-10T10:11:11.415Z,4.60
2018-02-10T10:13:39.076Z,4.80
2018-02-10T10:16:07.402Z,5.10
2018-02-10T10:18:34.956Z,5.00
2018-02-10T10:21:02.482Z,5.30
2018-02-10T10:23:30.013Z,5.30
2018-02-10T10:25:57.514Z,5.20
2018-02-10T10:28:25.046Z,5.20
2018-02-10T10:30:52.644Z,5.00
2018-02-10T10:33:20.213Z,5.10
2018-02-10T10:35:47.780Z,5.40
2018-02-10T10:38:15.357Z,5.30
2018-02-10T10:40:42.878Z,5.20
2018-02-10T10:43:11.248Z,4.90
2018-02-10T10:45:38.797Z,4.90
2018-02-10T10:48:06.356Z,4.90
2018-02-10T10:50:33.870Z,4.90
2018-02-10T10:53:01.411Z,4.70
2018-02-10T10:55:28.918Z,4.70
2018-02-10T10:57:56.446Z,4.70
2018-02-10T11:00:24.891Z,4.60
2018-02-10T11:02:53.529Z,4.70
2018-02-10T11:05:21.060Z,4.60
2018-02-10T11:07:49.428Z,4.60
2018-02-10T11:10:16.927Z,4.60
2018-02-10T11:12:44.423Z,4.50
2018-02-10T11:15:11.950Z,4.40
2018-02-10T11:17:39.514Z,4.70
2018-02-10T11:20:07.081Z,4.60
2018-02-10T11:22:35.489Z,4.60
2018-02-10T11:25:03.867Z,4.50
2018-02-10T11:27:31.403Z,4.50
2018-02-10T11:29:59.094Z,4.50
2018-02-10T11:32:29.692Z,4.50
2018-02-10T11:34:58.008Z,4.70
2018-02-10T11:37:25.547Z,4.70
2018-02-10T11:39:53.833Z,4.60
2018-02-10T11:42:22.212Z,4.60
2018-02-10T11:44:49.821Z,4.50
2018-02-10T11:47:17.381Z,4.60
2018-02-10T11:49:45.662Z,4.60
2018-02-10T11:52:13.950Z,4.60
2018-02-10T11:54:42.333Z,4.60
2018-02-10T11:57:10.660Z,4.50
2018-02-10T11:59:38.194Z,4.50
2018-02-10T12:02:06.603Z,4.50
2018-02-10T12:04:34.153Z,4.50
2018-02-10T12:07:02.305Z,4.60
2018-02-10T12:09:29.868Z,4.50
2018-02-10T12:11:57.426Z,4.70
2018-02-10T12:14:24.980Z,4.60
2018-02-10T12:16:53.281Z,4.80
2018-02-10T12:19:20.906Z,4.90
2018-02-10T12:21:48.541Z,5.10
2018-02-10T12:24:16.110Z,5.10
2018-02-10T12:26:43.692Z,5.00
2018-02-10T12:29:11.261Z,5.10
2018-02-10T12:31:38.854Z,5.00
2018-02-10T12:34:06.379Z,4.90
2018-02-10T12:36:34.643Z,4.70
2018-02-10T12:39:03.022Z,4.60
2018-02-10T12:41:31.392Z,4.60
2018-02-10T12:43:58.948Z,4.50
2018-02-10T12:46:26.606Z,4.50
2018-02-10T12:48:59.900Z,4.30
2018-02-10T12:51:28.213Z,4.50
2018-02-10T12:53:55.764Z,4.50
2018-02-10T12:56:23.335Z,4.40
2018-02-10T12:58:51.896Z,4.40
2018-02-10T13:01:19.528Z,4.40
2018-02-10T13:03:47.069Z,4.40
2018-02-10T13:06:15.446Z,4.40
2018-02-10T13:08:43.061Z,4.40
2018-02-10T13:11:10.651Z,4.50
2018-02-10T13:13:38.217Z,4.40
2018-02-10T13:16:05.757Z,4.60
2018-02-10T13:18:33.379Z,4.50
2018-02-10T13:21:00.966Z,4.50
2018-02-10T13:23:28.492Z,4.60
2018-02-10T13:25:56.036Z,4.40
2018-02-10T13:28:24.427Z,4.10
2018-02-10T13:30:52.784Z,4.10
2018-02-10T13:33:20.402Z,4.10
2018-02-10T13:35:47.953Z,4.00
2018-02-10T13:38:16.287Z,3.80
2018-02-10T13:40:44.648Z,3.70
2018-02-10T13:43:12.321Z,3.80
2018-02-10T13:45:40.622Z,3.50
2018-02-10T13:48:08.225Z,3.50
2018-02-10T13:50:36.480Z,3.50
2018-02-10T13:53:04.057Z,3.50
2018-02-10T13:55:31.586Z,3.40
2018-02-10T13:57:59.171Z,3.30
2018-02-10T14:00:27.562Z,3.40
2018-02-10T14:02:56.359Z,3.40
2018-02-10T14:05:23.878Z,3.40
2018-02-10T14:07:51.420Z,3.30
2018-02-10T14:10:19.744Z,3.20
2018-02-10T14:12:47.313Z,3.10
2018-02-10T14:15:14.870Z,3.20
2018-02-10T14:17:42.438Z,3.00
2018-02-10T14:20:10.808Z,2.90
2018-02-10T14:22:39.124Z,2.90
2018-02-10T14:25:06.649Z,2.90
2018-02-10T14:27:34.334Z,3.00
2018-02-10T14:30:02.727Z,2.80
2018-02-10T14:32:31.037Z,2.80
2018-02-10T14:34:59.321Z,2.80
2018-02-10T14:37:27.684Z,2.70
2018-02-10T14:39:55.259Z,2.70
2018-02-10T14:42:22.811Z,2.80
2018-02-10T14:44:50.438Z,2.80
2018-02-10T14:47:18.821Z,2.80
2018-02-10T14:49:46.351Z,2.80
2018-02-10T14:52:14.001Z,2.80
2018-02-10T14:54:41.552Z,2.80
2018-02-10T14:57:09.087Z,2.80
2018-02-10T14:59:36.642Z,2.80
2018-02-10T15:02:04.171Z,2.70
2018-02-10T15:04:31.730Z,2.70
2018-02-10T15:07:00.028Z,2.70
2018-02-10T15:09:27.596Z,2.70
2018-02-10T15:11:55.127Z,2.70
2018-02-10T15:14:22.709Z,2.70
2018-02-10T15:16:50.239Z,2.70
2018-02-10T15:19:17.761Z,2.70
2018-02-10T15:21:45.282Z,2.70
2018-02-10T15:24:12.926Z,2.70
2018-02-10T15:26:40.489Z,2.60
2018-02-10T15:29:08.824Z,2.50
2018-02-10T15:31:48.362Z,2.40
2018-02-10T15:34:28.518Z,2.50
2018-02-10T15:36:56.038Z,2.50
2018-02-10T15:39:23.650Z,2.50
2018-02-10T15:41:51.974Z,2.50
2018-02-10T15:44:19.513Z,2.50
2018-02-10T15:46:47.792Z,2.40
2018-02-10T15:49:16.168Z,2.30
2018-02-10T15:51:43.743Z,2.30
2018-02-10T15:54:11.260Z,2.30
2018-02-10T15:56:38.883Z,2.40
2018-02-10T15:59:06.445Z,2.40
2018-02-10T16:01:33.992Z,2.40
2018-02-10T16:04:01.527Z,2.40
2018-02-10T16:06:29.833Z,2.30
2018-02-10T16:08:57.470Z,2.30
2018-02-10T16:11:25.021Z,2.20
2018-02-10T16:13:52.574Z,2.20
2018-02-10T16:16:20.139Z,2.20
2018-02-10T16:18:47.739Z,2.10
2018-02-10T16:21:15.333Z,2.10
2018-02-10T16:23:42.877Z,2.00
2018-02-10T16:26:10.435Z,2.10
2018-02-10T16:28:38.006Z,2.10
2018-02-10T16:31:05.527Z,2.10
2018-02-10T16:33:33.835Z,2.00
2018-02-10T16:36:01.498Z,2.00
2018-02-10T16:38:29.106Z,2.00
2018-02-10T16:40:56.676Z,2.00
2018-02-10T16:43:24.204Z,2.00
2018-02-10T16:45:51.803Z,2.00
2018-02-10T16:48:19.403Z,2.00
2018-02-10T16:50:46.989Z,2.00
2018-02-10T16:53:14.581Z,1.90
2018-02-10T16:55:42.122Z,1.90
2018-02-10T16:58:09.677Z,1.90
2018-02-10T17:00:37.284Z,1.90
2018-02-10T17:03:04.881Z,1.90
2018-02-10T17:05:32.510Z,1.90
2018-02-10T17:08:00.047Z,1.90
2018-02-10T17:10:28.360Z,1.90
2018-02-10T17:12:55.907Z,1.90
2018-02-10T17:15:24.281Z,1.80
2018-02-10T17:17:51.772Z,1.80
2018-02-10T17:20:20.121Z,1.80
2018-02-10T17:22:47.637Z,1.80
2018-02-10T17:25:15.946Z,1.80
2018-02-10T17:27:43.477Z,1.80
2018-02-10T17:30:11.037Z,1.80
2018-02-10T17:32:38.572Z,1.80
2018-02-10T17:35:06.127Z,1.80
2018-02-10T17:37:33.684Z,1.80
2018-02-10T17:40:01.976Z,1.70
2018-02-10T17:42:30.305Z,1.70
2018-02-10T17:44:57.836Z,1.70
2018-02-10T17:47:26.195Z,1.70
2018-02-10T17:49:53.746Z,1.60
2018-02-10T17:52:21.300Z,1.70
2018-02-10T17:54:48.816Z,1.60
2018-02-10T17:57:16.449Z,1.60
2018-02-10T17:59:44.010Z,1.60
2018-02-10T18:02:11.547Z,1.60
2018-02-10T18:04:39.138Z,1.60
2018-02-10T18:07:07.465Z,1.60
2018-02-10T18:09:35.001Z,1.60
2018-02-10T18:12:03.314Z,1.60
2018-02-10T18:14:30.982Z,1.60
2018-02-10T18:16:58.532Z,1.60
2018-02-10T18:19:26.930Z,1.50
2018-02-10T18:21:54.492Z,1.50
2018-02-10T18:24:22.015Z,1.60
2018-02-10T18:26:49.537Z,1.50
2018-02-10T18:29:17.922Z,1.60
2018-02-10T18:31:46.232Z,1.60
2018-02-10T18:34:13.798Z,1.50
2018-02-10T18:36:41.391Z,1.50
2018-02-10T18:39:08.892Z,1.60
2018-02-10T18:41:36.439Z,1.60
2018-02-10T18:44:03.959Z,1.60
2018-02-10T18:46:31.489Z,1.60
2018-02-10T18:48:59.009Z,1.50
2018-02-10T18:51:27.314Z,1.50
2018-02-10T18:53:54.905Z,1.50
2018-02-10T18:56:22.516Z,1.50
2018-02-10T18:58:50.037Z,1.50
2018-02-10T19:01:17.807Z,1.50
2018-02-10T19:03:46.148Z,1.50
2018-02-10T19:06:13.664Z,1.50
2018-02-10T19:08:41.990Z,1.50
2018-02-10T19:11:09.531Z,1.50
2018-02-10T19:13:37.061Z,1.50
2018-02-10T19:16:04.585Z,1.50
2018-02-10T19:18:32.113Z,1.50
2018-02-10T19:20:59.631Z,1.50
2018-02-10T19:23:27.256Z,1.50
2018-02-10T19:25:54.820Z,1.50
2018-02-10T19:28:22.405Z,1.50
2018-02-10T19:30:49.934Z,1.50
2018-02-10T19:33:17.503Z,1.50
2018-02-10T19:35:45.020Z,1.50
2018-02-10T19:38:12.580Z,1.50
2018-02-10T19:40:40.145Z,1.50
2018-02-10T19:43:07.700Z,1.50
2018-02-10T19:45:35.261Z,1.50
2018-02-10T19:48:02.849Z,1.50
2018-02-10T19:50:30.396Z,1.50
2018-02-10T19:52:57.998Z,1.50
2018-02-10T19:55:25.528Z,1.50
2018-02-10T19:57:53.441Z,1.50
2018-02-10T20:00:20.961Z,1.50
2018-02-10T20:02:49.415Z,1.50
2018-02-10T20:05:17.028Z,1.50
2018-02-10T20:07:45.375Z,1.50
2018-02-10T20:10:12.914Z,1.50
2018-02-10T20:12:40.503Z,1.50
2018-02-10T20:15:08.592Z,1.60
2018-02-10T20:17:36.137Z,1.60
2018-02-10T20:20:03.842Z,1.60
2018-02-10T20:22:31.677Z,1.60
2018-02-10T20:25:00.083Z,1.60
2018-02-10T20:27:27.696Z,1.60
2018-02-10T20:29:55.278Z,1.50
2018-02-10T20:32:22.826Z,1.50
2018-02-10T20:34:50.400Z,1.60
2018-02-10T20:37:17.930Z,1.60
2018-02-10T20:39:46.262Z,1.60
2018-02-10T20:42:13.901Z,1.60
2018-02-10T20:44:42.221Z,1.60
2018-02-10T20:47:09.945Z,1.60
2018-02-10T20:49:38.285Z,1.60
2018-02-10T20:52:05.832Z,1.60
2018-02-10T20:54:33.487Z,1.60
2018-02-10T20:57:01.773Z,1.70
2018-02-10T20:59:29.395Z,1.70
2018-02-10T21:01:56.936Z,1.60
2018-02-10T21:04:24.472Z,1.60
2018-02-10T21:06:52.034Z,1.60
2018-02-10T21:09:19.588Z,1.60
2018-02-10T21:11:47.148Z,1.60
2018-02-10T21:14:14.681Z,1.50
2018-02-10T21:16:42.205Z,1.50
2018-02-10T21:19:09.757Z,1.50
2018-02-10T21:21:37.351Z,1.50
2018-02-10T21:24:04.946Z,1.50
2018-02-10T21:26:33.371Z,1.50
2018-02-10T21:29:01.687Z,1.60
2018-02-10T21:31:29.248Z,1.50
2018-02-10T21:33:56.837Z,1.50
2018-02-10T21:36:24.355Z,1.50
2018-02-10T21:38:52.652Z,1.50
2018-02-10T21:41:20.206Z,1.50
2018-02-10T21:43:47.796Z,1.40
2018-02-10T21:46:15.322Z,1.40
2018-02-10T21:48:42.879Z,1.40
2018-02-10T21:51:10.424Z,1.40
2018-02-10T21:53:38.857Z,1.30
2018-02-10T21:56:06.418Z,1.30
2018-02-10T21:58:34.027Z,1.30
2018-02-10T22:01:01.575Z,1.30
2018-02-10T22:03:29.193Z,1.30
2018-02-10T22:05:56.729Z,1.30
2018-02-10T22:08:24.269Z,1.30
2018-02-10T22:10:51.832Z,1.20
2018-02-10T22:13:20.154Z,1.20
2018-02-10T22:15:47.683Z,1.20
2018-02-10T22:18:16.042Z,1.20
2018-02-10T22:20:43.561Z,1.10
2018-02-10T22:23:11.128Z,1.20
2018-02-10T22:25:39.397Z,1.10
2018-02-10T22:28:07.684Z,1.10
2018-02-10T22:30:35.978Z,1.10
2018-02-10T22:33:04.272Z,1.10
2018-02-10T22:35:32.795Z,1.00
2018-02-10T22:38:00.384Z,1.10
2018-02-10T22:40:27.982Z,1.10
2018-02-10T22:42:55.553Z,1.00
2018-02-10T22:45:23.098Z,1.10
2018-02-10T22:47:50.632Z,1.10
2018-02-10T22:50:18.184Z,1.10
2018-02-10T22:52:46.494Z,1.20
2018-02-10T22:55:14.807Z,1.20
2018-02-10T22:57:42.331Z,1.10
2018-02-10T23:00:09.849Z,1.20
2018-02-10T23:02:37.435Z,1.20
2018-02-10T23:05:04.984Z,1.20
2018-02-10T23:07:32.592Z,1.20
2018-02-10T23:10:00.106Z,1.20
2018-02-10T23:12:28.422Z,1.30
2018-02-10T23:14:55.939Z,1.30
2018-02-10T23:17:23.488Z,1.30
2018-02-10T23:19:51.045Z,1.30
2018-02-10T23:22:18.581Z,1.40
2018-02-10T23:24:47.076Z,1.40
2018-02-10T23:27:15.476Z,1.40
2018-02-10T23:29:43.019Z,1.40
2018-02-10T23:32:10.599Z,1.40
2018-02-10T23:34:38.146Z,1.40
2018-02-10T23:37:05.753Z,1.50
2018-02-10T23:39:33.365Z,1.50
2018-02-10T23:42:00.993Z,1.50
2018-02-10T23:44:28.533Z,1.60
2018-02-10T23:46:56.068Z,1.50
2018-02-10T23:49:23.622Z,1.60
2018-02-10T23:51:51.932Z,1.60
2018-02-10T23:54:19.566Z,1.50
2018-02-10T23:56:47.146Z,1.50
2018-02-10T23:59:14.660Z,1.50
